Time;durP1;ratioP1;P1;durP2;ratioP2;P2;SDS_P1;SDS_P2;PMS_P1;PMS_P2;Temp;Humidity;BMP_temperature;BMP_pressure;BME280_temperature;BME280_humidity;BME280_pressure;Samples;Min_cycle;Max_cycle;Signal;HPM_P1;HPM_P2
2021/01/16 00:06:39;;;;;;;88.35;29.82;;;;;;;-5.86;100.00;100752.73;10343041;86;20755;-81
2021/01/16 00:21:44;;;;;;;83.07;29.67;;;;;;;-6.02;100.00;100724.02;10584013;82;21872;-81
2021/01/16 00:36:48;;;;;;;121.22;39.48;;;;;;;-6.06;100.00;100735.55;10663717;82;21084;-81
2021/01/16 00:51:53;;;;;;;97.72;34.88;;;;;;;-5.70;100.00;100730.78;10443054;83;21060;-81
2021/01/16 01:07:00;;;;;;;84.37;28.40;;;;;;;-5.58;100.00;100731.91;10323250;85;21027;-81
2021/01/16 01:22:04;;;;;;;98.62;33.28;;;;;;;-5.48;100.00;100733.06;10586216;83;21079;-81
2021/01/16 01:37:08;;;;;;;121.60;40.13;;;;;;;-5.59;100.00;100731.49;10627732;83;21073;-82
2021/01/16 01:52:15;;;;;;;91.47;28.52;;;;;;;-5.48;100.00;100741.56;10660184;82;21057;-81
2021/01/16 02:07:37;;;;;;;74.32;28.12;;;;;;;-5.44;100.00;100734.25;10702075;82;21047;-81
2021/01/16 02:23:10;;;;;;;95.32;31.73;;;;;;;-5.43;100.00;100713.38;10716512;82;21193;-81
2021/01/16 02:38:21;;;;;;;106.05;35.60;;;;;;;-5.54;100.00;100737.84;10115789;87;21267;-81
2021/01/16 02:53:26;;;;;;;86.28;29.70;;;;;;;-5.54;100.00;100725.05;10404378;84;21151;-81
2021/01/16 03:08:30;;;;;;;378.47;102.80;;;;;;;-5.59;100.00;100726.38;10697338;83;21072;-81
2021/01/16 03:23:35;;;;;;;281.70;85.77;;;;;;;-5.55;100.00;100715.23;10749488;81;21092;-81
2021/01/16 03:38:39;;;;;;;81.23;30.70;;;;;;;-5.29;100.00;100679.48;10809776;81;21126;-81
2021/01/16 03:53:43;;;;;;;54.27;21.43;;;;;;;-5.29;100.00;100679.48;10847595;82;21100;-81
2021/01/16 04:08:47;;;;;;;57.73;24.80;;;;;;;-5.12;100.00;100687.30;10842756;81;21060;-81
2021/01/16 04:23:52;;;;;;;44.03;17.47;;;;;;;-5.09;100.00;100694.50;10827887;81;21110;-81
2021/01/16 04:38:56;;;;;;;404.30;131.57;;;;;;;-5.09;100.00;100682.16;10720826;82;21072;-81
2021/01/16 04:54:02;;;;;;;125.30;56.13;;;;;;;-5.12;100.00;100671.95;10701679;83;21068;-81
2021/01/16 05:09:08;;;;;;;164.72;51.25;;;;;;;-5.24;100.00;100650.84;10685917;83;21028;-81
2021/01/16 05:24:14;;;;;;;91.00;34.23;;;;;;;-5.58;100.00;100633.89;10716702;83;21985;-81
2021/01/16 05:39:19;;;;;;;76.62;29.20;;;;;;;-5.30;100.00;100633.47;10487132;83;21069;-81
2021/01/16 05:54:26;;;;;;;67.22;24.82;;;;;;;-5.13;100.00;100625.48;10706439;82;21032;-80
2021/01/16 06:09:30;;;;;;;105.07;40.23;;;;;;;-5.13;100.00;100594.78;10088958;87;21565;-80
2021/01/16 06:24:37;;;;;;;39.43;16.97;;;;;;;-5.33;100.00;100572.98;10292254;85;21080;-83
2021/01/16 06:39:44;;;;;;;126.90;46.28;;;;;;;-5.44;100.00;100559.52;10699408;83;21083;-80
2021/01/16 06:54:50;;;;;;;155.63;55.33;;;;;;;-5.09;100.00;100549.93;10485038;84;21206;-80
2021/01/16 07:09:58;;;;;;;125.65;55.73;;;;;;;-5.05;100.00;100531.08;10308145;84;21119;-79
2021/01/16 07:25:06;;;;;;;155.12;68.30;;;;;;;-5.03;100.00;100514.41;10689888;82;21166;-80
2021/01/16 07:40:34;;;;;;;104.12;44.53;;;;;;;-4.95;100.00;100472.90;10674137;82;21498;-82
2021/01/16 07:56:03;;;;;;;177.60;66.80;;;;;;;-4.81;100.00;100459.79;10724645;81;21150;-79
2021/01/16 08:11:11;;;;;;;76.80;30.77;;;;;;;-4.61;100.00;100455.50;10720056;81;21009;-79
2021/01/16 08:26:19;;;;;;;28.17;14.45;;;;;;;-4.29;100.00;100434.73;10685778;83;21059;-81
2021/01/16 08:41:26;;;;;;;103.80;39.25;;;;;;;-3.86;100.00;100402.86;10413292;84;21090;-79
2021/01/16 08:56:34;;;;;;;101.53;41.58;;;;;;;-3.43;100.00;100391.02;10740334;81;21088;-88
2021/01/16 09:11:39;;;;;;;41.73;15.65;;;;;;;-3.04;100.00;100368.94;10744333;82;21099;-78
2021/01/16 09:26:45;;;;;;;66.50;26.90;;;;;;;-2.72;100.00;100352.55;10680045;81;21104;-81
2021/01/16 09:41:50;;;;;;;;;;;;;;;-2.64;100.00;100336.89;10773732;81;21052;-77
2021/01/16 09:56:55;;;;;;;464.67;164.13;;;;;;;-2.79;100.00;100312.52;10701739;82;20242;-79
2021/01/16 10:12:00;;;;;;;70.67;32.40;;;;;;;-2.75;100.00;100285.84;10774300;81;21114;-80
2021/01/16 10:27:05;;;;;;;38.30;13.62;;;;;;;-2.73;100.00;100234.42;10832783;81;21732;-81
2021/01/16 10:42:16;;;;;;;49.10;21.62;;;;;;;-2.72;100.00;100188.17;10723183;82;21411;-81
2021/01/16 10:57:24;;;;;;;72.32;29.52;;;;;;;-2.74;100.00;100146.74;10688373;83;21092;-79
2021/01/16 11:12:28;;;;;;;40.75;16.45;;;;;;;-2.86;100.00;100142.41;10696657;83;21079;-79
2021/01/16 11:27:36;;;;;;;32.33;12.03;;;;;;;-2.97;100.00;100091.91;10703211;83;22134;-80
2021/01/16 11:42:51;;;;;;;22.00;12.03;;;;;;;-2.92;100.00;100055.33;10476848;83;21084;-81
2021/01/16 11:57:56;;;;;;;40.43;19.57;;;;;;;-2.80;100.00;99995.45;10706880;81;21092;-86
2021/01/16 12:13:00;;;;;;;24.90;14.15;;;;;;;-3.08;100.00;99974.19;10735386;83;21386;-80
2021/01/16 12:28:10;;;;;;;57.67;23.52;;;;;;;-3.19;100.00;99947.64;10747744;82;21018;-79
2021/01/16 12:43:15;;;;;;;36.42;17.07;;;;;;;-3.04;100.00;99933.39;10797376;82;21103;-79
2021/01/16 12:58:20;;;;;;;22.90;9.05;;;;;;;-2.89;100.00;99929.86;10808491;81;21032;-83
2021/01/16 13:13:25;;;;;;;26.30;9.47;;;;;;;-2.58;100.00;99931.27;10848508;82;21036;-80
2021/01/16 13:28:30;;;;;;;30.68;11.75;;;;;;;-2.30;100.00;99932.73;10859771;82;21039;-79
2021/01/16 13:43:42;;;;;;;23.23;11.13;;;;;;;-1.94;100.00;99947.11;10831703;82;21060;-78
2021/01/16 13:58:47;;;;;;;66.80;24.40;;;;;;;-1.96;100.00;99955.32;10845795;81;21583;-78
2021/01/16 14:13:51;;;;;;;68.90;26.90;;;;;;;-1.74;100.00;99959.12;10848258;81;21573;-78
2021/01/16 14:28:56;;;;;;;106.45;40.75;;;;;;;-1.72;100.00;99974.02;10847096;81;21043;-80
2021/01/16 14:44:02;;;;;;;52.67;18.48;;;;;;;-2.02;100.00;99982.56;10726770;82;21180;-81
2021/01/16 14:59:07;;;;;;;71.97;24.02;;;;;;;-2.29;100.00;100008.48;10728856;83;21111;-78
2021/01/16 15:14:13;;;;;;;37.70;14.53;;;;;;;-2.79;100.00;100035.64;10712146;83;21029;-80
2021/01/16 15:29:18;;;;;;;39.83;11.93;;;;;;;-3.53;100.00;100101.45;10677311;83;21124;-79
2021/01/16 15:44:30;;;;;;;70.42;22.75;;;;;;;-4.30;100.00;100151.66;10716419;82;21099;-79
2021/01/16 15:59:35;;;;;;;42.65;17.73;;;;;;;-5.05;100.00;100138.31;10716070;83;21012;-79
2021/01/16 16:14:40;;;;;;;90.60;29.93;;;;;;;-5.35;100.00;100126.70;10710427;83;21207;-78
2021/01/16 16:29:45;;;;;;;107.53;32.57;;;;;;;-5.58;100.00;100129.83;10709837;83;21143;-81
2021/01/16 16:44:50;;;;;;;80.90;25.75;;;;;;;-5.95;100.00;100124.30;10717795;82;21155;-80
2021/01/16 16:59:54;;;;;;;95.50;30.63;;;;;;;-5.91;100.00;100132.30;10717449;83;21111;-79
2021/01/16 17:14:58;;;;;;;84.60;27.67;;;;;;;-6.22;100.00;100141.92;10694131;83;21632;-79
2021/01/16 17:30:03;;;;;;;78.20;22.63;;;;;;;-6.53;100.00;100166.81;10675688;83;21264;-79
2021/01/16 17:45:11;;;;;;;67.12;21.73;;;;;;;-6.59;100.00;100189.06;10657384;81;21135;-78
2021/01/16 18:00:18;;;;;;;74.70;19.73;;;;;;;-6.99;100.00;100217.41;10475249;83;21154;-77
2021/01/16 18:15:22;;;;;;;45.98;15.20;;;;;;;-7.31;100.00;100234.07;10489270;83;21564;-79
2021/01/16 18:30:27;;;;;;;223.47;85.20;;;;;;;-7.42;100.00;100242.30;10726527;81;21016;-78
2021/01/16 18:45:32;;;;;;;32.67;15.13;;;;;;;-8.88;100.00;100264.37;10714044;81;21080;-79
2021/01/16 19:00:39;;;;;;;169.32;45.78;;;;;;;-9.43;100.00;100307.55;10660132;83;21704;-80
2021/01/16 19:15:44;;;;;;;119.87;35.58;;;;;;;-10.21;100.00;100329.84;10655918;83;21052;-80
2021/01/16 19:30:48;;;;;;;121.28;33.45;;;;;;;-10.53;100.00;100342.60;10734965;82;21025;-80
2021/01/16 19:45:57;;;;;;;84.17;26.93;;;;;;;-10.59;100.00;100367.98;10707692;82;21054;-80
2021/01/16 20:01:02;;;;;;;72.50;21.55;;;;;;;-10.78;100.00;100379.39;10727630;81;21032;-80
2021/01/16 20:16:09;;;;;;;79.90;24.52;;;;;;;-10.96;100.00;100405.55;10723510;82;21438;-80
2021/01/16 20:31:16;;;;;;;139.50;38.35;;;;;;;-11.38;100.00;100419.78;10731664;82;21052;-80
2021/01/16 20:46:21;;;;;;;118.02;34.73;;;;;;;-11.58;100.00;100431.92;10732203;83;21051;-79
2021/01/16 21:01:27;;;;;;;98.58;28.95;;;;;;;-11.82;100.00;100457.09;10732519;83;21040;-81
2021/01/16 21:16:32;;;;;;;98.20;32.75;;;;;;;-12.17;100.00;100460.28;10725116;82;21060;-81
2021/01/16 21:31:37;;;;;;;112.68;34.78;;;;;;;-12.63;100.00;100488.09;10723813;82;21087;-80
2021/01/16 21:46:42;;;;;;;95.05;28.02;;;;;;;-13.14;100.00;100501.84;10790418;81;21449;-78
2021/01/16 22:01:48;;;;;;;110.03;34.48;;;;;;;-13.51;100.00;100517.81;10811461;81;21581;-78
2021/01/16 22:16:53;;;;;;;64.03;18.87;;;;;;;-13.76;100.00;100526.31;10805509;81;21107;-79
2021/01/16 22:31:58;;;;;;;91.82;30.17;;;;;;;-13.53;100.00;100541.77;10805593;81;21051;-80
2021/01/16 22:47:03;;;;;;;27.82;11.50;;;;;;;-13.79;100.00;100548.56;10726562;82;21108;-78
2021/01/16 23:02:08;;;;;;;90.25;26.20;;;;;;;-14.10;100.00;100556.88;10705906;83;21096;-79
2021/01/16 23:17:12;;;;;;;57.33;18.02;;;;;;;-14.44;100.00;100570.56;10713195;83;21074;-79
2021/01/16 23:32:17;;;;;;;63.00;21.60;;;;;;;-14.71;100.00;100565.48;10702256;82;21126;-78
2021/01/16 23:47:22;;;;;;;77.30;23.12;;;;;;;-14.54;100.00;100578.77;10646959;83;21044;-79
